Time;durP1;ratioP1;P1;durP2;ratioP2;P2;SDS_P1;SDS_P2;PMS_P1;PMS_P2;Temp;Humidity;BMP_temperature;BMP_pressure;BME280_temperature;BME280_humidity;BME280_pressure;Samples;Min_cycle;Max_cycle;Signal;HPM_P1;HPM_P2
2022/06/01 00:01:35;;;;;;;1.60;1.50;;;14.40;99.90;;;;;;5031006;28;20294;-63
2022/06/01 00:04:03;;;;;;;1.88;1.60;;;14.40;99.90;;;;;;5029763;28;20209;-63
2022/06/01 00:06:31;;;;;;;1.50;1.40;;;14.40;99.90;;;;;;5030582;28;20217;-63
2022/06/01 00:08:59;;;;;;;1.45;1.30;;;14.50;99.90;;;;;;5024674;28;20279;-62
2022/06/01 00:11:27;;;;;;;1.52;1.35;;;14.50;99.90;;;;;;5030517;28;20203;-63
2022/06/01 00:13:55;;;;;;;1.60;1.50;;;14.50;99.90;;;;;;5030200;28;20201;-62
2022/06/01 00:16:24;;;;;;;1.80;1.40;;;14.50;99.90;;;;;;5030481;28;20362;-62
2022/06/01 00:18:53;;;;;;;2.10;1.75;;;14.50;99.90;;;;;;5030624;28;20251;-62
2022/06/01 00:21:21;;;;;;;1.60;1.50;;;14.50;99.90;;;;;;5034372;28;20254;-62
2022/06/01 00:23:49;;;;;;;1.52;1.42;;;14.60;99.90;;;;;;5034480;28;20213;-62
2022/06/01 00:26:17;;;;;;;1.65;1.55;;;14.60;99.90;;;;;;5034943;28;20307;-63
2022/06/01 00:28:46;;;;;;;1.75;1.65;;;14.60;99.90;;;;;;5030025;28;20197;-63
2022/06/01 00:31:14;;;;;;;2.15;1.60;;;14.60;99.90;;;;;;5030367;28;20231;-63
2022/06/01 00:33:43;;;;;;;2.22;1.85;;;14.30;99.90;;;;;;5029683;28;20201;-63
2022/06/01 00:36:11;;;;;;;1.65;1.55;;;13.90;99.90;;;;;;5030216;28;20256;-63
2022/06/01 00:38:39;;;;;;;2.97;1.50;;;13.80;99.90;;;;;;5029519;28;20224;-62
2022/06/01 00:41:07;;;;;;;1.52;1.42;;;13.60;99.90;;;;;;5030346;28;20236;-63
2022/06/01 00:43:44;;;;;;;1.48;1.38;;;13.60;99.90;;;;;;5029360;28;20231;-62
2022/06/01 00:46:13;;;;;;;2.25;1.55;;;13.50;99.90;;;;;;5030000;28;20334;-63
2022/06/01 00:48:47;;;;;;;1.95;1.75;;;13.40;99.90;;;;;;5029660;28;20203;-63
2022/06/01 00:51:18;;;;;;;2.10;1.65;;;13.30;99.90;;;;;;5030901;28;20208;-63
2022/06/01 00:53:46;;;;;;;3.70;1.90;;;13.30;99.90;;;;;;5040479;28;20278;-62
2022/06/01 00:56:20;;;;;;;1.80;1.38;;;13.30;99.90;;;;;;5031328;28;20282;-61
2022/06/01 00:58:51;;;;;;;1.85;1.75;;;13.40;99.90;;;;;;5029069;28;20256;-62
2022/06/01 01:01:21;;;;;;;1.55;1.45;;;13.40;99.90;;;;;;5030154;28;20682;-61
2022/06/01 01:03:56;;;;;;;2.03;1.80;;;13.30;99.90;;;;;;5029940;28;20197;-62
2022/06/01 01:06:26;;;;;;;1.55;1.45;;;13.30;99.90;;;;;;5023897;28;20311;-63
2022/06/01 01:08:55;;;;;;;3.10;1.52;;;13.30;99.90;;;;;;5029589;28;20251;-62
2022/06/01 01:11:28;;;;;;;1.90;1.30;;;13.30;99.90;;;;;;5030088;28;20668;-62
2022/06/01 01:13:58;;;;;;;4.55;1.95;;;13.40;99.90;;;;;;5029328;28;20293;-62
2022/06/01 01:16:28;;;;;;;1.80;1.70;;;13.40;99.90;;;;;;5029854;28;20227;-62
2022/06/01 01:18:57;;;;;;;2.25;1.67;;;13.30;99.90;;;;;;5029344;28;20216;-62
2022/06/01 01:21:35;;;;;;;2.78;1.70;;;13.30;99.90;;;;;;5031203;28;20232;-62
2022/06/01 01:24:13;;;;;;;2.13;1.60;;;13.20;99.90;;;;;;5033630;28;20250;-62
2022/06/01 01:26:47;;;;;;;2.65;1.60;;;13.10;99.90;;;;;;5031396;28;20311;-62
2022/06/01 01:29:16;;;;;;;1.95;1.85;;;13.10;99.90;;;;;;5029585;28;20228;-62
2022/06/01 01:31:44;;;;;;;2.40;2.05;;;13.00;99.90;;;;;;5024697;28;20673;-62
2022/06/01 01:34:12;;;;;;;2.58;1.80;;;13.10;99.90;;;;;;5028874;28;20605;-62
2022/06/01 01:36:48;;;;;;;1.80;1.70;;;13.10;99.90;;;;;;5029409;28;20307;-62
2022/06/01 01:39:16;;;;;;;2.50;2.10;;;13.20;99.90;;;;;;5029193;28;20217;-61
2022/06/01 01:41:48;;;;;;;1.70;1.60;;;13.20;99.90;;;;;;5029741;28;20262;-62
2022/06/01 01:44:19;;;;;;;2.65;1.40;;;13.10;99.90;;;;;;5028855;28;20238;-62
2022/06/01 01:46:49;;;;;;;2.47;1.55;;;13.10;99.90;;;;;;5029437;28;20306;-62
2022/06/01 01:49:18;;;;;;;2.67;2.03;;;13.10;99.90;;;;;;5029138;28;20243;-62
2022/06/01 01:51:46;;;;;;;2.45;1.70;;;13.10;99.90;;;;;;5030911;28;20210;-62
2022/06/01 01:54:27;;;;;;;2.38;2.17;;;13.00;99.90;;;;;;5041349;28;20254;-62
2022/06/01 01:57:15;;;;;;;1.88;1.63;;;12.90;99.90;;;;;;5029369;28;20243;-61
2022/06/01 01:59:54;;;;;;;2.45;1.75;;;13.10;99.90;;;;;;5030278;28;20275;-62
2022/06/01 02:02:29;;;;;;;2.47;1.60;;;13.10;99.90;;;;;;5032615;28;20232;-62
2022/06/01 02:07:54;;;;;;;1.95;1.75;;;12.90;99.90;;;;;;5032829;28;20280;-62
2022/06/01 02:13:09;;;;;;;2.72;1.95;;;12.70;99.90;;;;;;5032280;28;20287;-62
2022/06/01 02:15:41;;;;;;;3.40;1.90;;;12.80;99.90;;;;;;5032952;28;20232;-62
2022/06/01 02:18:13;;;;;;;2.33;1.70;;;12.90;99.90;;;;;;5032761;28;20303;-62
2022/06/01 02:20:44;;;;;;;3.25;2.25;;;12.90;99.90;;;;;;5032720;28;20228;-62
2022/06/01 02:23:15;;;;;;;1.73;1.63;;;13.10;99.90;;;;;;5036120;28;20242;-61
2022/06/01 02:25:47;;;;;;;1.77;1.55;;;13.10;99.90;;;;;;5032150;28;20713;-62
2022/06/01 02:28:16;;;;;;;2.20;1.83;;;13.20;99.90;;;;;;5032251;28;20254;-62
2022/06/01 02:30:47;;;;;;;1.90;1.75;;;13.30;99.90;;;;;;5032709;28;20204;-62
2022/06/01 02:33:18;;;;;;;1.90;1.80;;;13.20;99.90;;;;;;5032148;28;20684;-62
2022/06/01 02:35:51;;;;;;;2.80;1.98;;;13.10;99.90;;;;;;5032564;28;20224;-62
2022/06/01 02:38:22;;;;;;;1.88;1.70;;;13.10;99.90;;;;;;5031711;28;20685;-62
2022/06/01 02:40:50;;;;;;;2.05;1.50;;;13.10;99.90;;;;;;5032107;28;20204;-62
2022/06/01 02:43:19;;;;;;;1.83;1.60;;;13.20;99.90;;;;;;5031788;28;20209;-63
2022/06/01 02:45:48;;;;;;;2.55;1.50;;;13.20;99.90;;;;;;5032175;28;20240;-62
2022/06/01 02:48:16;;;;;;;2.13;1.92;;;13.20;99.90;;;;;;5032073;28;20213;-62
2022/06/01 02:50:43;;;;;;;1.92;1.70;;;13.10;99.90;;;;;;5032703;28;20300;-62
2022/06/01 02:53:12;;;;;;;2.50;1.70;;;13.10;99.90;;;;;;5042180;28;20243;-62
2022/06/01 02:55:40;;;;;;;2.10;1.90;;;13.00;99.90;;;;;;5035081;28;20229;-62
2022/06/01 02:58:13;;;;;;;2.55;2.35;;;12.70;99.90;;;;;;5031880;28;20239;-60
2022/06/01 03:00:42;;;;;;;1.77;1.65;;;12.60;99.90;;;;;;5031648;28;20240;-62
2022/06/01 03:03:11;;;;;;;2.10;1.55;;;12.50;99.90;;;;;;5031357;28;20208;-62
2022/06/01 03:05:41;;;;;;;1.92;1.83;;;12.60;99.90;;;;;;5032121;28;20286;-62
2022/06/01 03:08:10;;;;;;;2.25;1.90;;;12.80;99.90;;;;;;5031575;28;20239;-62
2022/06/01 03:10:39;;;;;;;1.73;1.55;;;12.80;99.90;;;;;;5031724;28;20621;-61
2022/06/01 03:13:19;;;;;;;2.40;1.95;;;12.90;99.90;;;;;;5030898;28;20205;-62
2022/06/01 03:15:49;;;;;;;2.78;2.30;;;12.80;99.90;;;;;;5031539;28;20250;-61
2022/06/01 03:18:17;;;;;;;3.03;2.05;;;12.90;99.90;;;;;;5031551;28;20239;-62
2022/06/01 03:20:45;;;;;;;1.90;1.80;;;12.90;99.90;;;;;;5031065;28;20775;-61
2022/06/01 03:23:13;;;;;;;1.95;1.67;;;12.80;99.90;;;;;;5035185;28;20232;-62
2022/06/01 03:25:41;;;;;;;2.25;2.05;;;12.90;99.90;;;;;;5031288;28;20275;-61
2022/06/01 03:28:09;;;;;;;3.13;2.05;;;12.90;99.90;;;;;;5031207;28;20292;-61
2022/06/01 03:30:37;;;;;;;3.00;2.00;;;12.90;99.90;;;;;;5031235;28;20220;-62
2022/06/01 03:33:07;;;;;;;1.95;1.85;;;12.90;99.90;;;;;;5030835;28;20204;-61
2022/06/01 03:35:36;;;;;;;2.80;1.98;;;12.80;99.90;;;;;;5031302;28;20240;-62
2022/06/01 03:38:07;;;;;;;4.05;1.50;;;12.80;99.90;;;;;;5030924;28;20239;-61
2022/06/01 03:40:37;;;;;;;1.73;1.58;;;12.90;99.90;;;;;;5030877;28;20717;-61
2022/06/01 03:43:07;;;;;;;2.45;2.25;;;13.00;99.90;;;;;;5030744;28;20201;-61
2022/06/01 03:48:24;;;;;;;4.00;1.85;;;13.00;99.90;;;;;;5030918;28;20208;-61
2022/06/01 03:50:52;;;;;;;2.20;1.98;;;13.00;99.90;;;;;;5031786;28;20227;-61
2022/06/01 03:53:20;;;;;;;2.20;2.05;;;12.90;99.90;;;;;;5040942;28;20242;-60
2022/06/01 03:55:48;;;;;;;2.00;1.85;;;13.00;99.90;;;;;;5034291;28;20271;-61
2022/06/01 03:58:18;;;;;;;2.65;1.92;;;13.00;99.90;;;;;;5030568;28;20192;-61
2022/06/01 04:00:46;;;;;;;2.35;1.83;;;13.00;99.90;;;;;;5030486;28;20784;-61
2022/06/01 04:03:14;;;;;;;2.78;2.05;;;13.00;99.90;;;;;;5030571;28;20201;-61
2022/06/01 04:05:44;;;;;;;2.55;2.35;;;12.90;99.90;;;;;;5030481;28;20274;-61
2022/06/01 04:08:12;;;;;;;2.90;2.05;;;12.90;99.90;;;;;;5030431;28;20205;-62
2022/06/01 04:10:43;;;;;;;3.50;1.80;;;12.90;99.90;;;;;;5030383;28;20196;-61
2022/06/01 04:13:11;;;;;;;2.33;2.13;;;12.90;99.90;;;;;;5028978;28;20197;-62
2022/06/01 04:15:40;;;;;;;2.38;2.00;;;12.90;99.90;;;;;;5030501;28;20224;-61
2022/06/01 04:18:08;;;;;;;2.38;1.80;;;12.90;99.90;;;;;;5030129;28;20236;-61
2022/06/01 04:20:36;;;;;;;2.40;2.25;;;13.10;99.90;;;;;;5030777;28;20311;-61
2022/06/01 04:23:06;;;;;;;2.45;2.25;;;13.00;99.90;;;;;;5031448;28;20250;-61
2022/06/01 04:25:34;;;;;;;2.40;2.20;;;13.10;99.90;;;;;;5020573;28;20327;-60
2022/06/01 04:28:07;;;;;;;2.00;1.80;;;13.10;99.90;;;;;;5017186;28;20334;-60
2022/06/01 04:30:34;;;;;;;2.67;2.40;;;13.20;99.90;;;;;;5017971;28;20768;-60
2022/06/01 04:33:07;;;;;;;2.33;1.75;;;13.10;99.90;;;;;;5016814;28;20292;-59
2022/06/01 04:35:35;;;;;;;4.32;2.20;;;13.20;99.90;;;;;;5017785;28;20271;-60
2022/06/01 04:38:13;;;;;;;3.35;2.20;;;13.20;99.90;;;;;;5017712;28;20197;-59
2022/06/01 04:40:44;;;;;;;3.75;1.65;;;13.20;99.90;;;;;;5017984;28;20227;-60
2022/06/01 04:43:13;;;;;;;2.70;2.50;;;13.20;99.90;;;;;;5014910;28;20296;-60
2022/06/01 04:45:42;;;;;;;6.45;1.92;;;13.20;99.90;;;;;;5017211;28;20832;-59
2022/06/01 04:48:10;;;;;;;2.25;2.05;;;13.20;99.90;;;;;;5017527;28;20200;-60
2022/06/01 04:50:42;;;;;;;2.35;2.15;;;13.30;99.90;;;;;;5017382;28;20294;-59
2022/06/01 04:53:11;;;;;;;2.30;2.00;;;13.30;99.90;;;;;;5014676;28;20212;-60
2022/06/01 04:55:40;;;;;;;2.63;2.42;;;13.40;99.90;;;;;;5016971;28;20237;-60
2022/06/01 04:58:09;;;;;;;2.25;2.15;;;13.40;99.90;;;;;;5017739;28;20209;-60
2022/06/01 05:00:39;;;;;;;2.25;2.15;;;13.50;99.90;;;;;;5017088;28;20220;-59
2022/06/01 05:03:08;;;;;;;2.47;2.28;;;13.60;99.90;;;;;;5014650;28;20464;-60
2022/06/01 05:05:39;;;;;;;2.92;2.40;;;13.70;99.90;;;;;;5017201;28;20250;-60
2022/06/01 05:08:11;;;;;;;2.80;2.60;;;13.80;99.90;;;;;;5017560;28;20263;-60
2022/06/01 05:10:39;;;;;;;3.10;2.35;;;13.90;99.90;;;;;;5017913;28;20211;-60
2022/06/01 05:13:09;;;;;;;2.38;2.20;;;14.00;99.90;;;;;;5014576;28;20208;-60
2022/06/01 05:15:45;;;;;;;2.72;2.25;;;14.20;99.90;;;;;;5016393;28;20235;-60
2022/06/01 05:18:13;;;;;;;2.58;2.30;;;14.30;99.90;;;;;;5017882;28;20620;-60
2022/06/01 05:20:41;;;;;;;3.78;2.80;;;14.20;99.90;;;;;;5016968;28;20224;-60
2022/06/01 05:23:10;;;;;;;2.92;2.70;;;14.20;99.90;;;;;;5014399;28;20690;-59
2022/06/01 05:25:42;;;;;;;3.20;2.80;;;14.10;99.90;;;;;;5016839;28;20235;-59
2022/06/01 05:28:11;;;;;;;2.67;2.38;;;14.10;99.90;;;;;;5017434;28;20216;-60
2022/06/01 05:30:40;;;;;;;4.25;3.10;;;14.30;99.90;;;;;;5017652;28;20204;-60
2022/06/01 05:33:08;;;;;;;4.15;2.60;;;14.40;99.90;;;;;;5015143;28;21163;-60
2022/06/01 05:35:36;;;;;;;3.45;3.15;;;14.50;99.90;;;;;;5019256;28;20240;-60
2022/06/01 05:38:07;;;;;;;3.63;3.30;;;14.60;99.90;;;;;;5020915;28;20704;-61
2022/06/01 05:40:35;;;;;;;3.35;3.05;;;14.60;99.90;;;;;;5020552;28;20231;-60
2022/06/01 05:43:10;;;;;;;3.13;2.88;;;14.50;99.90;;;;;;5019012;28;20212;-59
2022/06/01 05:45:40;;;;;;;3.33;3.13;;;14.50;99.90;;;;;;5020585;28;20858;-59
2022/06/01 05:48:10;;;;;;;2.85;2.65;;;14.50;99.90;;;;;;5021458;28;20325;-61
2022/06/01 05:50:37;;;;;;;2.78;2.58;;;14.60;99.90;;;;;;5020203;28;20974;-61
2022/06/01 05:53:07;;;;;;;4.50;3.30;;;14.70;99.90;;;;;;5018317;28;20281;-59
2022/06/01 05:55:36;;;;;;;8.25;2.95;;;14.70;99.90;;;;;;5020798;28;20233;-61
2022/06/01 05:58:15;;;;;;;2.95;2.67;;;14.70;99.90;;;;;;5020780;28;20219;-60
2022/06/01 06:00:45;;;;;;;3.35;2.50;;;14.90;99.90;;;;;;5020684;28;20334;-60
2022/06/01 06:03:15;;;;;;;2.63;2.42;;;15.00;99.90;;;;;;5018622;28;20211;-60
2022/06/01 06:08:37;;;;;;;3.92;2.20;;;15.30;99.90;;;;;;5019949;28;20422;-59
2022/06/01 06:11:12;;;;;;;3.33;2.70;;;15.30;99.90;;;;;;5020908;28;20212;-60
2022/06/01 06:13:40;;;;;;;3.42;2.97;;;15.40;99.90;;;;;;5018004;28;20511;-59
2022/06/01 06:16:10;;;;;;;3.17;2.67;;;15.40;99.90;;;;;;5020523;28;20305;-59
2022/06/01 06:18:38;;;;;;;7.07;3.63;;;15.60;99.90;;;;;;5018964;28;20208;-60
2022/06/01 06:21:08;;;;;;;3.85;3.17;;;15.70;99.90;;;;;;5019875;28;20406;-59
2022/06/01 06:23:36;;;;;;;2.97;2.75;;;15.70;99.90;;;;;;5017272;28;20295;-60
2022/06/01 06:26:07;;;;;;;3.17;2.85;;;15.90;99.90;;;;;;5019976;28;20270;-60
2022/06/01 06:28:36;;;;;;;3.45;2.72;;;16.00;99.90;;;;;;5020153;28;20267;-59
2022/06/01 06:31:10;;;;;;;6.75;3.05;;;16.10;99.90;;;;;;5020756;28;20694;-60
2022/06/01 06:33:40;;;;;;;4.18;3.13;;;16.10;99.90;;;;;;5017735;28;20298;-59
2022/06/01 06:36:11;;;;;;;2.92;2.63;;;16.30;99.90;;;;;;5019757;28;20718;-61
2022/06/01 06:38:41;;;;;;;5.82;2.90;;;16.40;99.90;;;;;;5019957;28;20244;-61
2022/06/01 06:41:11;;;;;;;10.57;2.92;;;16.60;99.90;;;;;;5019946;28;21188;-61
2022/06/01 06:43:39;;;;;;;4.65;3.05;;;16.70;99.90;;;;;;5013891;28;20236;-60
2022/06/01 06:46:11;;;;;;;7.45;2.60;;;16.80;99.90;;;;;;5018972;28;20236;-60
2022/06/01 06:48:39;;;;;;;3.65;3.15;;;16.80;99.90;;;;;;5020313;28;20213;-61
2022/06/01 06:51:07;;;;;;;3.70;2.33;;;16.80;99.90;;;;;;5019911;28;20337;-61
2022/06/01 06:53:35;;;;;;;10.27;2.72;;;16.90;99.90;;;;;;5018005;28;20244;-61
2022/06/01 06:56:04;;;;;;;2.60;2.40;;;17.00;99.90;;;;;;5019180;28;20227;-61
2022/06/01 06:58:32;;;;;;;2.58;2.38;;;17.20;99.90;;;;;;5019482;28;20216;-61
2022/06/01 07:01:00;;;;;;;3.22;2.92;;;17.50;99.90;;;;;;5019938;28;20303;-60
2022/06/01 07:03:29;;;;;;;9.10;2.40;;;17.50;99.90;;;;;;5017563;28;21074;-61
2022/06/01 07:06:11;;;;;;;7.05;2.15;;;17.50;99.90;;;;;;5018779;28;20220;-61
2022/06/01 07:08:41;;;;;;;3.22;2.40;;;17.40;99.90;;;;;;5019381;28;20236;-60
2022/06/01 07:11:10;;;;;;;3.42;2.30;;;17.60;99.90;;;;;;5019542;28;20262;-60
2022/06/01 07:13:38;;;;;;;3.67;1.90;;;17.60;99.90;;;;;;5016944;28;20224;-61
2022/06/01 07:16:09;;;;;;;3.10;2.30;;;17.60;99.90;;;;;;5018855;28;21240;-59
2022/06/01 07:18:40;;;;;;;1.85;1.52;;;17.60;99.90;;;;;;5019129;28;20215;-60
2022/06/01 07:21:08;;;;;;;5.38;2.08;;;17.70;99.90;;;;;;5019266;28;20303;-60
2022/06/01 07:23:38;;;;;;;3.13;1.50;;;17.70;99.90;;;;;;5016590;28;20201;-60
2022/06/01 07:26:10;;;;;;;1.90;1.50;;;17.90;99.90;;;;;;5018948;28;20248;-59
2022/06/01 07:28:38;;;;;;;2.63;1.27;;;18.10;99.90;;;;;;5018875;28;20629;-60
2022/06/01 07:31:06;;;;;;;3.40;1.42;;;18.30;99.90;;;;;;5018884;28;20275;-60
2022/06/01 07:33:36;;;;;;;2.13;1.75;;;18.50;99.90;;;;;;5016892;28;20211;-60
2022/06/01 07:36:07;;;;;;;2.05;1.65;;;18.60;99.40;;;;;;5018976;28;20228;-60
2022/06/01 07:44:13;;;;;;;1.35;1.25;;;19.00;99.50;;;;;;5016312;28;20291;-60
2022/06/01 07:46:40;;;;;;;1.70;1.15;;;18.90;98.90;;;;;;5017950;28;20264;-60
2022/06/01 07:49:15;;;;;;;2.55;1.75;;;18.90;99.30;;;;;;5018637;28;20845;-61
2022/06/01 07:52:06;;;;;;;2.63;1.23;;;19.00;99.10;;;;;;5018345;28;20307;-61
2022/06/01 07:54:36;;;;;;;5.75;1.55;;;19.10;97.70;;;;;;5016838;28;20211;-60
2022/06/01 07:57:04;;;;;;;1.88;1.20;;;19.10;99.00;;;;;;5017842;28;21056;-60
2022/06/01 07:59:36;;;;;;;2.08;1.45;;;19.20;98.60;;;;;;5018913;28;20295;-60
2022/06/01 08:02:09;;;;;;;3.65;1.70;;;19.30;98.40;;;;;;5017424;28;20283;-60
2022/06/01 08:04:38;;;;;;;1.63;1.10;;;19.40;98.50;;;;;;5016616;28;20289;-61
2022/06/01 08:07:10;;;;;;;6.55;1.35;;;19.60;98.60;;;;;;5018144;28;20201;-60
2022/06/01 08:09:38;;;;;;;1.63;1.15;;;19.80;97.10;;;;;;5018611;28;20209;-59
2022/06/01 08:14:52;;;;;;;1.33;1.08;;;19.90;96.40;;;;;;5015495;28;20212;-60
2022/06/01 08:17:20;;;;;;;1.70;1.58;;;19.90;96.40;;;;;;5017710;28;20291;-60
2022/06/01 08:19:48;;;;;;;2.38;1.30;;;19.90;96.60;;;;;;5018208;28;20208;-59
2022/06/01 08:22:17;;;;;;;2.70;1.10;;;20.00;97.00;;;;;;5017212;28;20355;-60
2022/06/01 08:24:45;;;;;;;1.55;1.23;;;20.30;96.90;;;;;;5016195;28;20258;-60
2022/06/01 08:27:13;;;;;;;1.23;0.82;;;20.40;95.10;;;;;;5017584;28;20303;-60
2022/06/01 08:29:41;;;;;;;2.33;1.48;;;20.50;94.60;;;;;;5018362;28;20250;-61
2022/06/01 08:32:10;;;;;;;1.40;1.20;;;20.40;94.90;;;;;;5017615;28;20302;-60
2022/06/01 08:34:38;;;;;;;3.08;0.98;;;20.70;94.60;;;;;;5015958;28;20292;-61
2022/06/01 08:37:06;;;;;;;1.98;1.17;;;20.90;94.40;;;;;;5017753;28;20220;-61
2022/06/01 08:39:35;;;;;;;1.67;1.10;;;21.10;93.80;;;;;;5017448;28;20780;-61
2022/06/01 08:42:04;;;;;;;2.65;1.38;;;21.40;93.80;;;;;;5016834;28;20849;-61
2022/06/01 08:44:36;;;;;;;3.08;1.25;;;21.80;94.00;;;;;;5016299;28;20795;-61
2022/06/01 08:47:08;;;;;;;2.17;1.23;;;21.90;94.30;;;;;;5016997;28;20276;-60
2022/06/01 08:49:37;;;;;;;2.00;1.27;;;22.10;93.40;;;;;;5018193;28;20288;-60
2022/06/01 08:52:06;;;;;;;2.15;1.10;;;22.20;93.90;;;;;;5016831;28;20258;-61
2022/06/01 08:54:36;;;;;;;2.35;1.17;;;22.30;93.10;;;;;;5015733;28;20290;-60
2022/06/01 08:57:09;;;;;;;1.60;1.00;;;22.50;92.20;;;;;;5017427;28;20322;-61
2022/06/01 08:59:44;;;;;;;1.05;0.65;;;22.40;91.30;;;;;;5017809;28;20889;-61
2022/06/01 09:02:27;;;;;;;1.10;0.90;;;22.30;91.50;;;;;;5017155;28;20294;-61
2022/06/01 09:05:02;;;;;;;1.30;0.73;;;22.30;90.60;;;;;;5015453;28;20780;-61
2022/06/01 09:07:33;;;;;;;1.65;0.90;;;22.20;90.90;;;;;;5016585;28;20219;-62
2022/06/01 09:10:26;;;;;;;1.10;0.65;;;22.10;90.60;;;;;;5021456;28;20232;-61
2022/06/01 09:13:08;;;;;;;1.02;0.73;;;22.00;89.70;;;;;;5018566;28;20299;-60
2022/06/01 09:15:44;;;;;;;2.13;0.80;;;21.50;90.00;;;;;;5021372;28;20220;-61
2022/06/01 09:18:13;;;;;;;5.07;0.80;;;21.30;90.40;;;;;;5021127;28;20222;-61
2022/06/01 09:23:27;;;;;;;1.27;0.95;;;21.20;90.80;;;;;;5017154;28;20259;-62
2022/06/01 09:25:57;;;;;;;0.88;0.68;;;21.40;91.50;;;;;;5019842;28;20318;-62
2022/06/01 09:28:28;;;;;;;2.55;0.90;;;21.80;90.60;;;;;;5020448;28;21315;-62
2022/06/01 09:30:59;;;;;;;0.80;0.80;;;22.20;90.50;;;;;;5020838;28;20240;-62
2022/06/01 09:33:29;;;;;;;1.13;0.80;;;22.60;90.70;;;;;;5018590;28;20273;-62
2022/06/01 09:36:17;;;;;;;1.80;1.02;;;22.80;87.30;;;;;;5019555;28;20566;-62
2022/06/01 09:38:51;;;;;;;1.38;0.80;;;23.00;87.50;;;;;;5019158;28;20503;-62
2022/06/01 09:41:30;;;;;;;3.03;0.70;;;23.20;86.20;;;;;;5021484;28;20603;-60
2022/06/01 09:44:00;;;;;;;1.10;0.80;;;22.70;85.90;;;;;;5018151;28;21413;-62
2022/06/01 09:46:35;;;;;;;2.05;0.75;;;22.50;85.10;;;;;;5020452;28;21047;-61
2022/06/01 09:49:07;;;;;;;0.80;0.60;;;22.80;85.10;;;;;;5021048;28;20199;-61
2022/06/01 09:51:39;;;;;;;1.45;0.88;;;23.20;86.70;;;;;;5021120;28;20274;-61
2022/06/01 09:54:13;;;;;;;3.15;0.88;;;23.40;86.40;;;;;;5017779;28;20197;-61
2022/06/01 09:56:48;;;;;;;1.02;0.90;;;23.10;86.10;;;;;;5020918;28;20945;-60
2022/06/01 10:07:46;;;;;;;2.42;0.93;;;23.30;84.10;;;;;;5019879;28;20747;-60
2022/06/01 10:10:23;;;;;;;2.97;0.93;;;23.40;84.70;;;;;;5020262;28;20203;-61
2022/06/01 10:12:55;;;;;;;1.55;0.70;;;23.80;83.60;;;;;;5019455;28;20295;-61
2022/06/01 10:15:36;;;;;;;1.48;1.00;;;24.00;82.30;;;;;;5019562;28;20215;-60
2022/06/01 10:18:12;;;;;;;0.90;0.80;;;24.00;81.40;;;;;;5020134;28;20216;-61
2022/06/01 10:20:45;;;;;;;1.25;0.88;;;24.40;82.30;;;;;;5019612;28;20311;-62
2022/06/01 10:23:19;;;;;;;2.20;0.95;;;24.90;79.80;;;;;;5017571;28;20331;-60
2022/06/01 10:25:52;;;;;;;0.98;0.73;;;24.60;80.10;;;;;;5019719;28;20303;-60
2022/06/01 10:28:27;;;;;;;2.92;0.80;;;24.60;78.60;;;;;;5019708;28;20655;-61
2022/06/01 10:31:22;;;;;;;2.72;0.75;;;24.60;78.40;;;;;;5020096;28;20205;-60
2022/06/01 10:33:56;;;;;;;1.27;1.10;;;25.10;77.80;;;;;;5016836;28;20574;-61
2022/06/01 10:36:38;;;;;;;1.48;0.70;;;25.40;78.00;;;;;;5018770;28;20929;-61
2022/06/01 10:39:13;;;;;;;1.20;0.80;;;25.70;78.20;;;;;;5019712;28;20638;-61
2022/06/01 10:41:48;;;;;;;1.92;0.88;;;25.40;76.70;;;;;;5020347;28;20207;-61
2022/06/01 10:44:24;;;;;;;1.98;0.80;;;25.50;80.20;;;;;;5017925;28;20251;-61
2022/06/01 10:46:58;;;;;;;2.15;0.80;;;26.00;76.30;;;;;;5018031;28;20262;-60
2022/06/01 10:49:37;;;;;;;2.97;0.88;;;25.90;76.30;;;;;;5019839;28;20259;-61
2022/06/01 10:52:17;;;;;;;0.90;0.70;;;25.50;76.90;;;;;;5018924;28;20768;-61
2022/06/01 10:54:51;;;;;;;1.60;1.02;;;24.60;74.50;;;;;;5017581;28;20849;-60
2022/06/01 10:57:21;;;;;;;1.15;1.05;;;24.50;76.00;;;;;;5017671;28;20231;-61
2022/06/01 10:59:51;;;;;;;1.90;1.00;;;24.40;75.70;;;;;;5018496;28;20228;-60
2022/06/01 11:02:35;;;;;;;0.90;0.65;;;24.40;75.90;;;;;;5019250;28;20216;-60
2022/06/01 11:05:16;;;;;;;1.92;0.80;;;24.40;76.40;;;;;;5017519;28;20230;-61
2022/06/01 11:08:00;;;;;;;1.80;0.70;;;24.60;75.80;;;;;;5018784;28;20274;-61
2022/06/01 11:10:44;;;;;;;2.20;0.80;;;24.70;76.10;;;;;;5019473;28;20772;-64
2022/06/01 11:13:29;;;;;;;2.10;0.70;;;25.20;74.90;;;;;;5016483;28;20223;-62
2022/06/01 11:16:09;;;;;;;2.58;0.70;;;25.90;74.60;;;;;;5019152;28;20302;-61
2022/06/01 11:18:58;;;;;;;1.75;0.77;;;26.00;73.70;;;;;;5019370;28;20330;-61
2022/06/01 11:21:33;;;;;;;1.58;0.82;;;26.10;72.20;;;;;;5018700;28;20615;-62
2022/06/01 11:24:17;;;;;;;1.63;0.80;;;26.00;76.20;;;;;;5016734;28;20311;-62
2022/06/01 11:27:24;;;;;;;1.10;0.73;;;26.40;73.50;;;;;;5018817;28;20304;-62
2022/06/01 11:30:06;;;;;;;0.90;0.68;;;26.60;73.20;;;;;;5018108;28;20310;-61
2022/06/01 11:32:44;;;;;;;2.65;0.75;;;26.50;71.20;;;;;;5017022;28;20301;-61
2022/06/01 11:35:21;;;;;;;1.98;0.80;;;26.20;72.80;;;;;;5016703;28;20232;-62
2022/06/01 11:37:55;;;;;;;0.70;0.70;;;26.40;71.10;;;;;;5018461;28;20232;-62
2022/06/01 11:40:32;;;;;;;2.08;0.70;;;26.70;69.60;;;;;;5018538;28;20232;-61
2022/06/01 11:43:05;;;;;;;1.45;0.70;;;26.40;69.30;;;;;;5016797;28;20211;-61
2022/06/01 11:45:36;;;;;;;1.45;0.55;;;26.60;71.00;;;;;;5018100;28;20250;-61
2022/06/01 11:48:08;;;;;;;1.23;0.70;;;26.80;69.10;;;;;;5018446;28;20212;-60
2022/06/01 11:51:03;;;;;;;1.27;0.75;;;26.70;69.90;;;;;;5018850;28;20244;-61
2022/06/01 11:53:35;;;;;;;1.58;0.70;;;26.80;68.70;;;;;;5016245;28;20304;-62
2022/06/01 11:56:15;;;;;;;3.53;0.90;;;26.80;69.40;;;;;;5018463;28;20954;-63
2022/06/01 11:58:55;;;;;;;1.50;0.80;;;27.20;70.20;;;;;;5017069;28;20232;-62
2022/06/01 12:01:35;;;;;;;1.27;0.70;;;27.30;69.00;;;;;;5016092;28;20254;-61
2022/06/01 12:04:21;;;;;;;3.08;0.65;;;27.20;68.60;;;;;;5012965;28;20220;-62
2022/06/01 12:06:58;;;;;;;1.73;0.60;;;26.80;68.20;;;;;;5016392;28;20647;-62
2022/06/01 12:09:40;;;;;;;1.63;0.70;;;26.60;68.50;;;;;;5018162;28;20306;-64
2022/06/01 12:12:22;;;;;;;0.70;0.55;;;26.50;67.40;;;;;;5016564;28;20204;-63
2022/06/01 12:14:58;;;;;;;0.90;0.60;;;26.90;68.10;;;;;;5015282;28;20670;-62
2022/06/01 12:17:36;;;;;;;1.33;0.95;;;27.10;67.30;;;;;;5017058;28;20325;-63
2022/06/01 12:20:43;;;;;;;2.05;0.90;;;27.20;66.30;;;;;;5018150;28;20323;-62
2022/06/01 12:29:54;;;;;;;1.52;0.90;;;27.20;68.80;;;;;;5016623;28;20303;-61
2022/06/01 12:32:23;;;;;;;1.98;0.70;;;27.60;66.30;;;;;;5016416;28;20212;-62
2022/06/01 12:35:07;;;;;;;0.85;0.60;;;27.90;66.30;;;;;;5015234;28;20688;-62
2022/06/01 12:37:45;;;;;;;2.03;0.60;;;28.10;64.90;;;;;;5017488;28;20212;-62
2022/06/01 12:40:17;;;;;;;2.20;1.00;;;28.00;64.00;;;;;;5017093;28;20308;-61
2022/06/01 12:42:52;;;;;;;1.30;1.10;;;27.50;63.70;;;;;;5016589;28;20215;-62
2022/06/01 12:45:23;;;;;;;0.80;0.70;;;27.50;64.20;;;;;;5014582;28;20232;-62
2022/06/01 12:47:56;;;;;;;4.50;1.15;;;27.50;64.30;;;;;;5015977;28;20307;-61
2022/06/01 12:50:27;;;;;;;1.02;0.70;;;27.40;64.50;;;;;;5016097;28;21037;-61
2022/06/01 12:53:15;;;;;;;1.27;0.80;;;27.50;65.00;;;;;;5015620;28;20294;-61
2022/06/01 12:55:47;;;;;;;1.45;0.80;;;27.60;65.00;;;;;;5015226;28;20729;-61
2022/06/01 12:58:20;;;;;;;2.00;0.70;;;27.40;62.10;;;;;;5016346;28;21072;-61
2022/06/01 13:00:51;;;;;;;3.97;0.60;;;27.60;64.30;;;;;;5015859;28;20693;-60
2022/06/01 13:03:21;;;;;;;1.25;0.63;;;27.90;62.90;;;;;;5013359;28;21160;-62
2022/06/01 13:05:53;;;;;;;0.77;0.57;;;28.00;63.10;;;;;;5016599;28;20232;-62
2022/06/01 13:08:26;;;;;;;1.20;0.73;;;27.80;63.40;;;;;;5016232;28;20265;-62
2022/06/01 13:10:58;;;;;;;1.90;0.80;;;28.10;63.70;;;;;;5017595;28;20211;-62
2022/06/01 13:13:29;;;;;;;3.10;1.08;;;28.50;62.00;;;;;;5013778;28;20318;-62
2022/06/01 13:16:01;;;;;;;1.70;0.60;;;28.00;62.30;;;;;;5015187;28;20248;-61
2022/06/01 13:18:34;;;;;;;1.23;0.80;;;27.50;61.30;;;;;;5015849;28;20208;-61
2022/06/01 13:21:07;;;;;;;1.83;0.60;;;27.30;62.40;;;;;;5017432;28;20208;-61
2022/06/01 13:23:45;;;;;;;0.70;0.60;;;27.50;62.50;;;;;;5013187;28;20258;-61
2022/06/01 13:26:19;;;;;;;1.00;0.70;;;27.20;62.60;;;;;;5016437;28;20606;-61
2022/06/01 13:28:48;;;;;;;0.93;0.50;;;27.00;62.30;;;;;;5016147;28;20654;-61
2022/06/01 13:31:16;;;;;;;1.00;0.70;;;26.60;62.10;;;;;;5016814;28;20235;-61
2022/06/01 13:33:49;;;;;;;1.13;0.90;;;25.70;61.70;;;;;;5011814;28;20799;-61
2022/06/01 13:36:28;;;;;;;0.80;0.60;;;25.60;63.20;;;;;;5015632;28;20252;-61
2022/06/01 13:39:07;;;;;;;6.55;0.90;;;26.20;62.30;;;;;;5015654;28;20268;-61
2022/06/01 13:41:37;;;;;;;0.95;0.60;;;26.90;63.10;;;;;;5016757;28;20274;-61
2022/06/01 13:44:13;;;;;;;1.50;0.63;;;27.90;63.20;;;;;;5012424;28;20204;-62
2022/06/01 13:46:43;;;;;;;1.83;0.70;;;28.20;61.80;;;;;;5014017;28;20310;-62
2022/06/01 13:49:15;;;;;;;1.00;0.60;;;28.50;60.60;;;;;;5015323;28;20304;-61
2022/06/01 13:51:45;;;;;;;1.05;0.70;;;28.90;60.70;;;;;;5016708;28;20212;-61